sensor_id;sensor_type;location;lat;lon;timestamp;temperature;humidity
5086;DHT22;4715;51.660;7.082;2024-03-23T00:55:52;8.20;99.90
5086;DHT22;4715;51.660;7.082;2024-03-23T00:58:14;8.20;99.90
5086;DHT22;4715;51.660;7.082;2024-03-23T01:00:37;8.10;99.90
5086;DHT22;4715;51.660;7.082;2024-03-23T01:03:03;8.10;99.90
5086;DHT22;4715;51.660;7.082;2024-03-23T01:05:23;8.00;99.90
5086;DHT22;4715;51.660;7.082;2024-03-23T01:07:47;8.00;99.90
5086;DHT22;4715;51.660;7.082;2024-03-23T01:10:08;7.90;99.90
5086;DHT22;4715;51.660;7.082;2024-03-23T01:12:31;7.90;99.90
5086;DHT22;4715;51.660;7.082;2024-03-23T01:14:52;7.80;99.90
5086;DHT22;4715;51.660;7.082;2024-03-23T01:17:15;7.80;99.90
5086;DHT22;4715;51.660;7.082;2024-03-23T01:19:37;7.70;99.90
5086;DHT22;4715;51.660;7.082;2024-03-23T01:22:00;7.70;99.90
5086;DHT22;4715;51.660;7.082;2024-03-23T01:24:21;7.60;99.90
5086;DHT22;4715;51.660;7.082;2024-03-23T01:26:42;7.60;99.90
5086;DHT22;4715;51.660;7.082;2024-03-23T01:29:05;7.50;99.90
5086;DHT22;4715;51.660;7.082;2024-03-23T01:31:28;7.50;99.90
5086;DHT22;4715;51.660;7.082;2024-03-23T01:33:50;7.50;99.90
5086;DHT22;4715;51.660;7.082;2024-03-23T01:36:12;7.50;99.90
5086;DHT22;4715;51.660;7.082;2024-03-23T01:38:33;7.50;99.90
5086;DHT22;4715;51.660;7.082;2024-03-23T01:40:58;7.50;99.90
5086;DHT22;4715;51.660;7.082;2024-03-23T01:43:19;7.60;99.90
5086;DHT22;4715;51.660;7.082;2024-03-23T01:45:42;7.70;99.90
5086;DHT22;4715;51.660;7.082;2024-03-23T01:48:03;7.70;99.90
5086;DHT22;4715;51.660;7.082;2024-03-23T01:50:28;7.80;99.90
5086;DHT22;4715;51.660;7.082;2024-03-23T01:52:49;7.70;99.90
5086;DHT22;4715;51.660;7.082;2024-03-23T01:55:13;7.70;99.90
5086;DHT22;4715;51.660;7.082;2024-03-23T01:57:37;7.60;99.90
5086;DHT22;4715;51.660;7.082;2024-03-23T02:00:00;7.60;99.90
5086;DHT22;4715;51.660;7.082;2024-03-23T02:02:23;7.60;99.90
5086;DHT22;4715;51.660;7.082;2024-03-23T02:04:45;7.60;99.90
5086;DHT22;4715;51.660;7.082;2024-03-23T02:07:08;7.60;99.90
5086;DHT22;4715;51.660;7.082;2024-03-23T02:09:30;7.50;99.90
5086;DHT22;4715;51.660;7.082;2024-03-23T02:11:55;7.50;99.90
5086;DHT22;4715;51.660;7.082;2024-03-23T02:14:17;7.40;99.90
5086;DHT22;4715;51.660;7.082;2024-03-23T02:16:37;7.40;99.90
5086;DHT22;4715;51.660;7.082;2024-03-23T02:19:01;7.40;99.90
5086;DHT22;4715;51.660;7.082;2024-03-23T02:21:22;7.30;99.90
5086;DHT22;4715;51.660;7.082;2024-03-23T02:23:45;7.30;99.90
5086;DHT22;4715;51.660;7.082;2024-03-23T02:26:09;7.20;99.90
5086;DHT22;4715;51.660;7.082;2024-03-23T02:28:31;7.20;99.90
5086;DHT22;4715;51.660;7.082;2024-03-23T02:30:53;7.20;99.90
5086;DHT22;4715;51.660;7.082;2024-03-23T02:33:15;7.20;99.90
5086;DHT22;4715;51.660;7.082;2024-03-23T02:35:37;7.20;99.90
5086;DHT22;4715;51.660;7.082;2024-03-23T02:37:59;7.20;99.90
5086;DHT22;4715;51.660;7.082;2024-03-23T02:40:22;7.10;99.90
5086;DHT22;4715;51.660;7.082;2024-03-23T02:42:44;7.10;99.90
5086;DHT22;4715;51.660;7.082;2024-03-23T02:45:05;7.10;99.90
5086;DHT22;4715;51.660;7.082;2024-03-23T02:47:27;7.10;99.90
5086;DHT22;4715;51.660;7.082;2024-03-23T02:49:49;7.10;99.90
5086;DHT22;4715;51.660;7.082;2024-03-23T02:52:11;7.10;99.90
5086;DHT22;4715;51.660;7.082;2024-03-23T02:54:32;7.10;99.90
5086;DHT22;4715;51.660;7.082;2024-03-23T02:56:56;7.20;99.90
5086;DHT22;4715;51.660;7.082;2024-03-23T02:59:17;7.30;99.90
5086;DHT22;4715;51.660;7.082;2024-03-23T03:01:41;7.40;99.90
5086;DHT22;4715;51.660;7.082;2024-03-23T03:04:02;7.40;99.90
5086;DHT22;4715;51.660;7.082;2024-03-23T03:06:26;7.40;99.90
5086;DHT22;4715;51.660;7.082;2024-03-23T03:08:47;7.30;99.90
5086;DHT22;4715;51.660;7.082;2024-03-23T03:11:09;7.20;99.90
5086;DHT22;4715;51.660;7.082;2024-03-23T03:13:31;7.20;99.90
5086;DHT22;4715;51.660;7.082;2024-03-23T03:15:53;7.20;99.90
5086;DHT22;4715;51.660;7.082;2024-03-23T03:18:14;7.20;99.90
5086;DHT22;4715;51.660;7.082;2024-03-23T03:20:39;7.10;99.90
5086;DHT22;4715;51.660;7.082;2024-03-23T03:23:00;7.10;99.90
5086;DHT22;4715;51.660;7.082;2024-03-23T03:25:24;7.10;99.90
5086;DHT22;4715;51.660;7.082;2024-03-23T03:27:45;7.10;99.90
5086;DHT22;4715;51.660;7.082;2024-03-23T03:30:11;7.10;99.90
5086;DHT22;4715;51.660;7.082;2024-03-23T03:32:32;7.00;99.90
5086;DHT22;4715;51.660;7.082;2024-03-23T03:34:54;7.00;99.90
5086;DHT22;4715;51.660;7.082;2024-03-23T03:37:15;6.90;99.90
5086;DHT22;4715;51.660;7.082;2024-03-23T03:39:37;6.90;99.90
5086;DHT22;4715;51.660;7.082;2024-03-23T03:41:58;6.90;99.90
5086;DHT22;4715;51.660;7.082;2024-03-23T03:44:21;6.90;99.90
5086;DHT22;4715;51.660;7.082;2024-03-23T03:46:44;6.90;99.90
5086;DHT22;4715;51.660;7.082;2024-03-23T03:49:06;6.90;99.90
5086;DHT22;4715;51.660;7.082;2024-03-23T03:51:27;6.80;99.90
5086;DHT22;4715;51.660;7.082;2024-03-23T03:53:50;6.80;99.90
5086;DHT22;4715;51.660;7.082;2024-03-23T03:56:11;6.80;99.90
5086;DHT22;4715;51.660;7.082;2024-03-23T03:58:33;6.70;99.90
5086;DHT22;4715;51.660;7.082;2024-03-23T04:00:54;6.70;99.90
5086;DHT22;4715;51.660;7.082;2024-03-23T04:03:18;6.70;99.90
5086;DHT22;4715;51.660;7.082;2024-03-23T04:05:39;6.70;99.90
5086;DHT22;4715;51.660;7.082;2024-03-23T04:08:01;6.60;99.90
5086;DHT22;4715;51.660;7.082;2024-03-23T04:10:26;6.60;99.90
5086;DHT22;4715;51.660;7.082;2024-03-23T04:12:48;6.60;99.90
5086;DHT22;4715;51.660;7.082;2024-03-23T04:15:09;6.60;99.90
5086;DHT22;4715;51.660;7.082;2024-03-23T04:17:31;6.60;99.90
5086;DHT22;4715;51.660;7.082;2024-03-23T04:19:56;6.60;99.90
5086;DHT22;4715;51.660;7.082;2024-03-23T04:22:18;6.60;99.90
5086;DHT22;4715;51.660;7.082;2024-03-23T04:24:38;6.50;99.90
5086;DHT22;4715;51.660;7.082;2024-03-23T04:27:04;6.50;99.90
5086;DHT22;4715;51.660;7.082;2024-03-23T04:29:25;6.50;99.90
5086;DHT22;4715;51.660;7.082;2024-03-23T04:31:47;6.50;99.90
5086;DHT22;4715;51.660;7.082;2024-03-23T04:34:08;6.50;99.90
5086;DHT22;4715;51.660;7.082;2024-03-23T04:36:31;6.50;99.90
5086;DHT22;4715;51.660;7.082;2024-03-23T04:38:53;6.50;99.90
5086;DHT22;4715;51.660;7.082;2024-03-23T04:41:15;6.50;99.90
5086;DHT22;4715;51.660;7.082;2024-03-23T04:43:37;6.50;99.90
5086;DHT22;4715;51.660;7.082;2024-03-23T04:45:59;6.50;99.90
5086;DHT22;4715;51.660;7.082;2024-03-23T04:48:22;6.50;99.90
5086;DHT22;4715;51.660;7.082;2024-03-23T04:50:44;6.50;99.90
5086;DHT22;4715;51.660;7.082;2024-03-23T04:53:07;6.50;99.90
5086;DHT22;4715;51.660;7.082;2024-03-23T04:55:30;6.50;99.90
5086;DHT22;4715;51.660;7.082;2024-03-23T04:57:53;6.50;99.90
5086;DHT22;4715;51.660;7.082;2024-03-23T05:00:14;6.50;99.90
5086;DHT22;4715;51.660;7.082;2024-03-23T05:02:42;6.50;99.90
5086;DHT22;4715;51.660;7.082;2024-03-23T05:05:04;6.50;99.90
5086;DHT22;4715;51.660;7.082;2024-03-23T05:07:28;6.50;99.90
5086;DHT22;4715;51.660;7.082;2024-03-23T05:09:52;6.50;99.90
5086;DHT22;4715;51.660;7.082;2024-03-23T05:12:13;6.50;99.90
5086;DHT22;4715;51.660;7.082;2024-03-23T05:14:37;6.40;99.90
5086;DHT22;4715;51.660;7.082;2024-03-23T05:16:58;6.40;99.90
5086;DHT22;4715;51.660;7.082;2024-03-23T05:19:20;6.40;99.90
5086;DHT22;4715;51.660;7.082;2024-03-23T05:21:41;6.40;99.90
5086;DHT22;4715;51.660;7.082;2024-03-23T05:24:03;6.40;99.90
5086;DHT22;4715;51.660;7.082;2024-03-23T05:26:27;6.40;99.90
5086;DHT22;4715;51.660;7.082;2024-03-23T05:28:49;6.40;99.90
5086;DHT22;4715;51.660;7.082;2024-03-23T05:31:10;6.50;99.90
5086;DHT22;4715;51.660;7.082;2024-03-23T05:33:32;6.50;99.90
5086;DHT22;4715;51.660;7.082;2024-03-23T05:35:57;6.50;99.90
5086;DHT22;4715;51.660;7.082;2024-03-23T05:38:19;6.50;99.90
5086;DHT22;4715;51.660;7.082;2024-03-23T05:40:40;6.50;99.90
5086;DHT22;4715;51.660;7.082;2024-03-23T05:43:04;6.50;99.90
5086;DHT22;4715;51.660;7.082;2024-03-23T05:45:26;6.50;99.90
5086;DHT22;4715;51.660;7.082;2024-03-23T05:47:48;6.40;99.90
5086;DHT22;4715;51.660;7.082;2024-03-23T05:50:09;6.40;99.90
5086;DHT22;4715;51.660;7.082;2024-03-23T05:52:33;6.40;99.90
5086;DHT22;4715;51.660;7.082;2024-03-23T05:54:55;6.50;99.90
5086;DHT22;4715;51.660;7.082;2024-03-23T05:57:17;6.40;99.90
5086;DHT22;4715;51.660;7.082;2024-03-23T05:59:40;6.40;99.90
5086;DHT22;4715;51.660;7.082;2024-03-23T06:02:02;6.50;99.90
5086;DHT22;4715;51.660;7.082;2024-03-23T06:04:24;6.50;99.90
5086;DHT22;4715;51.660;7.082;2024-03-23T06:06:49;6.50;99.90
5086;DHT22;4715;51.660;7.082;2024-03-23T06:09:10;6.40;99.90
5086;DHT22;4715;51.660;7.082;2024-03-23T06:11:31;6.40;99.90
5086;DHT22;4715;51.660;7.082;2024-03-23T06:13:52;6.40;99.90
5086;DHT22;4715;51.660;7.082;2024-03-23T06:16:15;6.40;99.90
5086;DHT22;4715;51.660;7.082;2024-03-23T06:18:36;6.40;99.90
5086;DHT22;4715;51.660;7.082;2024-03-23T06:20:58;6.50;99.90
5086;DHT22;4715;51.660;7.082;2024-03-23T06:23:19;6.50;99.90
5086;DHT22;4715;51.660;7.082;2024-03-23T06:25:41;6.50;99.90
5086;DHT22;4715;51.660;7.082;2024-03-23T06:28:02;6.50;99.90
5086;DHT22;4715;51.660;7.082;2024-03-23T06:30:25;6.60;99.90
5086;DHT22;4715;51.660;7.082;2024-03-23T06:32:50;6.60;99.90
5086;DHT22;4715;51.660;7.082;2024-03-23T06:35:13;6.60;99.90
5086;DHT22;4715;51.660;7.082;2024-03-23T06:37:35;6.60;99.90
5086;DHT22;4715;51.660;7.082;2024-03-23T06:39:57;6.60;99.90
5086;DHT22;4715;51.660;7.082;2024-03-23T06:42:19;6.60;99.90
5086;DHT22;4715;51.660;7.082;2024-03-23T06:44:40;6.60;99.90
5086;DHT22;4715;51.660;7.082;2024-03-23T06:47:04;6.60;99.90
5086;DHT22;4715;51.660;7.082;2024-03-23T06:49:28;6.60;99.90
5086;DHT22;4715;51.660;7.082;2024-03-23T06:51:51;6.60;99.90
5086;DHT22;4715;51.660;7.082;2024-03-23T06:54:13;6.70;99.90
5086;DHT22;4715;51.660;7.082;2024-03-23T06:56:35;6.70;99.90
5086;DHT22;4715;51.660;7.082;2024-03-23T06:58:57;6.70;99.90
5086;DHT22;4715;51.660;7.082;2024-03-23T07:01:18;6.70;99.90
5086;DHT22;4715;51.660;7.082;2024-03-23T07:03:41;6.80;99.90
5086;DHT22;4715;51.660;7.082;2024-03-23T07:06:03;6.90;99.90
5086;DHT22;4715;51.660;7.082;2024-03-23T07:08:25;6.90;99.90
5086;DHT22;4715;51.660;7.082;2024-03-23T07:10:46;6.90;99.90
5086;DHT22;4715;51.660;7.082;2024-03-23T07:13:08;7.00;99.90
5086;DHT22;4715;51.660;7.082;2024-03-23T07:15:29;7.00;99.90
5086;DHT22;4715;51.660;7.082;2024-03-23T07:17:51;7.10;99.90
5086;DHT22;4715;51.660;7.082;2024-03-23T07:20:15;7.20;99.90
5086;DHT22;4715;51.660;7.082;2024-03-23T07:22:42;7.30;99.90
5086;DHT22;4715;51.660;7.082;2024-03-23T07:25:04;7.30;99.90
5086;DHT22;4715;51.660;7.082;2024-03-23T07:27:26;7.30;99.90
5086;DHT22;4715;51.660;7.082;2024-03-23T07:29:50;7.30;99.90
5086;DHT22;4715;51.660;7.082;2024-03-23T07:32:12;7.40;99.90
5086;DHT22;4715;51.660;7.082;2024-03-23T07:34:33;7.40;99.90
5086;DHT22;4715;51.660;7.082;2024-03-23T07:36:55;7.50;99.90
5086;DHT22;4715;51.660;7.082;2024-03-23T07:39:17;7.60;99.90
5086;DHT22;4715;51.660;7.082;2024-03-23T07:41:39;7.70;99.90
5086;DHT22;4715;51.660;7.082;2024-03-23T07:44:01;7.80;99.90
5086;DHT22;4715;51.660;7.082;2024-03-23T07:46:23;7.90;99.90
5086;DHT22;4715;51.660;7.082;2024-03-23T07:48:45;7.90;99.90
5086;DHT22;4715;51.660;7.082;2024-03-23T07:51:09;7.90;99.90
5086;DHT22;4715;51.660;7.082;2024-03-23T07:53:30;7.80;99.90
5086;DHT22;4715;51.660;7.082;2024-03-23T07:55:56;7.90;99.90
5086;DHT22;4715;51.660;7.082;2024-03-23T07:58:17;7.90;99.90
5086;DHT22;4715;51.660;7.082;2024-03-23T08:00:39;7.90;99.90
5086;DHT22;4715;51.660;7.082;2024-03-23T08:03:00;8.00;99.90
5086;DHT22;4715;51.660;7.082;2024-03-23T08:05:26;8.00;99.90
5086;DHT22;4715;51.660;7.082;2024-03-23T08:07:50;8.00;99.90
5086;DHT22;4715;51.660;7.082;2024-03-23T08:10:14;8.00;99.90
5086;DHT22;4715;51.660;7.082;2024-03-23T08:12:41;8.00;99.90
5086;DHT22;4715;51.660;7.082;2024-03-23T08:15:12;8.00;99.90
5086;DHT22;4715;51.660;7.082;2024-03-23T08:17:36;8.00;99.90
5086;DHT22;4715;51.660;7.082;2024-03-23T08:20:08;7.90;99.90
5086;DHT22;4715;51.660;7.082;2024-03-23T08:22:30;8.00;99.90
5086;DHT22;4715;51.660;7.082;2024-03-23T08:24:55;8.10;99.90
5086;DHT22;4715;51.660;7.082;2024-03-23T08:27:20;8.20;99.90
5086;DHT22;4715;51.660;7.082;2024-03-23T08:30:02;8.30;99.90
5086;DHT22;4715;51.660;7.082;2024-03-23T08:32:24;8.50;99.90
5086;DHT22;4715;51.660;7.082;2024-03-23T08:35:00;8.50;99.90
5086;DHT22;4715;51.660;7.082;2024-03-23T08:37:21;8.50;99.90
5086;DHT22;4715;51.660;7.082;2024-03-23T08:39:51;8.60;99.90
5086;DHT22;4715;51.660;7.082;2024-03-23T08:42:12;8.70;99.90
5086;DHT22;4715;51.660;7.082;2024-03-23T08:44:34;8.60;99.90
5086;DHT22;4715;51.660;7.082;2024-03-23T08:46:58;8.60;99.90
5086;DHT22;4715;51.660;7.082;2024-03-23T08:49:21;8.80;99.90
5086;DHT22;4715;51.660;7.082;2024-03-23T08:51:42;8.90;99.90
5086;DHT22;4715;51.660;7.082;2024-03-23T08:54:05;8.90;99.90
5086;DHT22;4715;51.660;7.082;2024-03-23T08:56:26;9.00;99.90
5086;DHT22;4715;51.660;7.082;2024-03-23T08:58:51;9.10;99.90
5086;DHT22;4715;51.660;7.082;2024-03-23T09:01:13;9.10;99.90
5086;DHT22;4715;51.660;7.082;2024-03-23T09:03:38;9.10;99.90
5086;DHT22;4715;51.660;7.082;2024-03-23T09:05:59;9.10;99.90
5086;DHT22;4715;51.660;7.082;2024-03-23T09:08:21;9.20;99.90
5086;DHT22;4715;51.660;7.082;2024-03-23T09:10:43;9.30;99.90
5086;DHT22;4715;51.660;7.082;2024-03-23T09:13:05;9.50;99.90
5086;DHT22;4715;51.660;7.082;2024-03-23T09:15:26;9.60;99.90
5086;DHT22;4715;51.660;7.082;2024-03-23T09:17:52;9.60;99.90
5086;DHT22;4715;51.660;7.082;2024-03-23T09:20:14;9.50;99.90
5086;DHT22;4715;51.660;7.082;2024-03-23T09:22:36;9.40;99.90
5086;DHT22;4715;51.660;7.082;2024-03-23T09:24:57;9.30;99.90
5086;DHT22;4715;51.660;7.082;2024-03-23T09:27:19;9.20;99.90
5086;DHT22;4715;51.660;7.082;2024-03-23T09:29:40;9.20;99.90
5086;DHT22;4715;51.660;7.082;2024-03-23T09:32:02;9.10;99.90
5086;DHT22;4715;51.660;7.082;2024-03-23T09:34:26;9.10;99.90
5086;DHT22;4715;51.660;7.082;2024-03-23T09:36:53;9.00;99.90
5086;DHT22;4715;51.660;7.082;2024-03-23T09:39:13;9.10;99.90
5086;DHT22;4715;51.660;7.082;2024-03-23T09:41:36;9.10;99.90
5086;DHT22;4715;51.660;7.082;2024-03-23T09:44:00;9.10;99.90
5086;DHT22;4715;51.660;7.082;2024-03-23T09:46:22;9.00;99.90
5086;DHT22;4715;51.660;7.082;2024-03-23T09:48:43;8.90;99.90
5086;DHT22;4715;51.660;7.082;2024-03-23T09:51:08;8.80;99.90
5086;DHT22;4715;51.660;7.082;2024-03-23T09:53:32;8.80;99.90
5086;DHT22;4715;51.660;7.082;2024-03-23T09:55:54;8.80;99.90
5086;DHT22;4715;51.660;7.082;2024-03-23T09:58:17;9.10;99.90
5086;DHT22;4715;51.660;7.082;2024-03-23T10:00:39;9.30;99.90
5086;DHT22;4715;51.660;7.082;2024-03-23T10:03:04;9.30;99.90
5086;DHT22;4715;51.660;7.082;2024-03-23T10:05:27;9.30;99.90
5086;DHT22;4715;51.660;7.082;2024-03-23T10:07:53;9.20;99.90
5086;DHT22;4715;51.660;7.082;2024-03-23T10:10:18;9.20;99.90
5086;DHT22;4715;51.660;7.082;2024-03-23T10:12:44;9.10;99.90
5086;DHT22;4715;51.660;7.082;2024-03-23T10:15:19;9.10;99.90
5086;DHT22;4715;51.660;7.082;2024-03-23T10:17:40;9.20;99.90
5086;DHT22;4715;51.660;7.082;2024-03-23T10:20:03;9.30;99.90
5086;DHT22;4715;51.660;7.082;2024-03-23T10:22:26;9.40;99.90
5086;DHT22;4715;51.660;7.082;2024-03-23T10:24:49;9.50;99.90
5086;DHT22;4715;51.660;7.082;2024-03-23T10:27:15;9.60;99.90
5086;DHT22;4715;51.660;7.082;2024-03-23T10:29:41;9.80;99.90
5086;DHT22;4715;51.660;7.082;2024-03-23T10:32:08;9.80;99.90
5086;DHT22;4715;51.660;7.082;2024-03-23T10:34:31;9.80;99.90
5086;DHT22;4715;51.660;7.082;2024-03-23T10:36:56;9.90;99.90
5086;DHT22;4715;51.660;7.082;2024-03-23T10:39:20;9.90;99.90
5086;DHT22;4715;51.660;7.082;2024-03-23T10:41:42;9.90;99.90
5086;DHT22;4715;51.660;7.082;2024-03-23T10:44:06;9.90;99.90
5086;DHT22;4715;51.660;7.082;2024-03-23T10:46:27;10.00;99.90
5086;DHT22;4715;51.660;7.082;2024-03-23T10:48:49;9.90;99.90
5086;DHT22;4715;51.660;7.082;2024-03-23T10:51:11;10.10;99.90
5086;DHT22;4715;51.660;7.082;2024-03-23T10:53:36;10.20;99.90
5086;DHT22;4715;51.660;7.082;2024-03-23T10:55:57;10.20;99.90
5086;DHT22;4715;51.660;7.082;2024-03-23T10:58:29;10.00;99.90
5086;DHT22;4715;51.660;7.082;2024-03-23T11:00:53;9.80;99.90
5086;DHT22;4715;51.660;7.082;2024-03-23T11:03:31;9.60;99.90
5086;DHT22;4715;51.660;7.082;2024-03-23T11:05:52;9.40;99.90
5086;DHT22;4715;51.660;7.082;2024-03-23T11:08:30;9.20;99.90
5086;DHT22;4715;51.660;7.082;2024-03-23T11:10:50;9.00;99.90
5086;DHT22;4715;51.660;7.082;2024-03-23T11:13:22;8.80;99.90
5086;DHT22;4715;51.660;7.082;2024-03-23T11:15:43;8.70;99.90
5086;DHT22;4715;51.660;7.082;2024-03-23T11:18:07;8.50;99.90
5086;DHT22;4715;51.660;7.082;2024-03-23T11:20:31;8.50;99.90
5086;DHT22;4715;51.660;7.082;2024-03-23T11:22:54;8.60;99.90
5086;DHT22;4715;51.660;7.082;2024-03-23T11:25:17;8.80;99.90
5086;DHT22;4715;51.660;7.082;2024-03-23T11:27:42;9.00;99.90
5086;DHT22;4715;51.660;7.082;2024-03-23T11:30:11;9.20;99.90
5086;DHT22;4715;51.660;7.082;2024-03-23T11:32:33;9.40;99.90
5086;DHT22;4715;51.660;7.082;2024-03-23T11:34:59;9.50;99.90
5086;DHT22;4715;51.660;7.082;2024-03-23T11:37:21;9.70;99.90
5086;DHT22;4715;51.660;7.082;2024-03-23T11:39:42;9.80;99.90
5086;DHT22;4715;51.660;7.082;2024-03-23T11:42:06;9.90;99.90
5086;DHT22;4715;51.660;7.082;2024-03-23T11:44:27;10.10;99.90
5086;DHT22;4715;51.660;7.082;2024-03-23T11:46:49;10.20;99.90
5086;DHT22;4715;51.660;7.082;2024-03-23T11:49:28;10.20;99.90
5086;DHT22;4715;51.660;7.082;2024-03-23T11:51:57;10.10;99.90
5086;DHT22;4715;51.660;7.082;2024-03-23T11:54:21;9.90;99.90
5086;DHT22;4715;51.660;7.082;2024-03-23T11:56:57;9.70;99.90
5086;DHT22;4715;51.660;7.082;2024-03-23T11:59:33;9.70;99.90
5086;DHT22;4715;51.660;7.082;2024-03-23T12:02:07;9.60;99.90
5086;DHT22;4715;51.660;7.082;2024-03-23T12:04:29;9.70;99.90
5086;DHT22;4715;51.660;7.082;2024-03-23T12:07:19;9.70;99.90
5086;DHT22;4715;51.660;7.082;2024-03-23T12:09:41;9.70;99.90
5086;DHT22;4715;51.660;7.082;2024-03-23T12:12:08;9.60;99.90
5086;DHT22;4715;51.660;7.082;2024-03-23T12:14:29;9.60;99.90
5086;DHT22;4715;51.660;7.082;2024-03-23T12:16:52;9.80;99.90
5086;DHT22;4715;51.660;7.082;2024-03-23T12:19:13;9.80;99.90
5086;DHT22;4715;51.660;7.082;2024-03-23T12:21:38;9.70;99.90
5086;DHT22;4715;51.660;7.082;2024-03-23T12:24:03;9.50;99.90
5086;DHT22;4715;51.660;7.082;2024-03-23T12:26:25;9.20;99.90
5086;DHT22;4715;51.660;7.082;2024-03-23T12:28:46;8.70;99.90
5086;DHT22;4715;51.660;7.082;2024-03-23T12:31:10;8.20;99.90
5086;DHT22;4715;51.660;7.082;2024-03-23T12:33:31;8.00;99.90
5086;DHT22;4715;51.660;7.082;2024-03-23T12:35:54;7.90;99.90
5086;DHT22;4715;51.660;7.082;2024-03-23T12:38:20;7.90;99.90
5086;DHT22;4715;51.660;7.082;2024-03-23T12:40:46;8.10;99.90
5086;DHT22;4715;51.660;7.082;2024-03-23T12:43:08;8.20;99.90
5086;DHT22;4715;51.660;7.082;2024-03-23T12:45:30;8.50;99.90
5086;DHT22;4715;51.660;7.082;2024-03-23T12:47:51;8.80;99.90
5086;DHT22;4715;51.660;7.082;2024-03-23T12:50:14;9.00;99.90
5086;DHT22;4715;51.660;7.082;2024-03-23T12:52:45;9.10;99.90
5086;DHT22;4715;51.660;7.082;2024-03-23T12:55:08;9.30;99.90
5086;DHT22;4715;51.660;7.082;2024-03-23T12:57:30;9.40;99.90
5086;DHT22;4715;51.660;7.082;2024-03-23T12:59:52;9.50;99.90
5086;DHT22;4715;51.660;7.082;2024-03-23T13:02:18;9.60;99.90
5086;DHT22;4715;51.660;7.082;2024-03-23T13:04:52;9.80;99.90
5086;DHT22;4715;51.660;7.082;2024-03-23T13:07:13;9.90;99.90
5086;DHT22;4715;51.660;7.082;2024-03-23T13:09:36;10.20;99.90
5086;DHT22;4715;51.660;7.082;2024-03-23T13:11:56;10.30;99.90
5086;DHT22;4715;51.660;7.082;2024-03-23T13:14:21;10.40;99.90
5086;DHT22;4715;51.660;7.082;2024-03-23T13:16:43;10.40;99.90
5086;DHT22;4715;51.660;7.082;2024-03-23T13:19:06;10.20;99.90
5086;DHT22;4715;51.660;7.082;2024-03-23T13:21:28;10.00;99.90
5086;DHT22;4715;51.660;7.082;2024-03-23T13:23:50;9.90;99.90
5086;DHT22;4715;51.660;7.082;2024-03-23T13:26:11;9.90;99.90
5086;DHT22;4715;51.660;7.082;2024-03-23T13:28:33;9.90;99.90
5086;DHT22;4715;51.660;7.082;2024-03-23T13:30:57;9.90;99.90
5086;DHT22;4715;51.660;7.082;2024-03-23T13:33:23;9.90;99.90
5086;DHT22;4715;51.660;7.082;2024-03-23T13:35:51;9.70;99.90
5086;DHT22;4715;51.660;7.082;2024-03-23T13:38:12;9.80;99.90
5086;DHT22;4715;51.660;7.082;2024-03-23T13:40:34;9.80;99.90
5086;DHT22;4715;51.660;7.082;2024-03-23T13:42:57;9.60;99.90
5086;DHT22;4715;51.660;7.082;2024-03-23T13:45:21;9.40;99.90
5086;DHT22;4715;51.660;7.082;2024-03-23T13:47:47;9.30;99.90
5086;DHT22;4715;51.660;7.082;2024-03-23T13:50:08;9.30;99.90
5086;DHT22;4715;51.660;7.082;2024-03-23T13:52:32;9.00;99.90
5086;DHT22;4715;51.660;7.082;2024-03-23T13:54:53;8.90;99.90
5086;DHT22;4715;51.660;7.082;2024-03-23T13:57:17;9.10;99.90
5086;DHT22;4715;51.660;7.082;2024-03-23T13:59:41;9.50;99.90
5086;DHT22;4715;51.660;7.082;2024-03-23T14:02:03;9.70;99.90
5086;DHT22;4715;51.660;7.082;2024-03-23T14:04:25;9.70;99.90
5086;DHT22;4715;51.660;7.082;2024-03-23T14:06:47;9.50;99.90
5086;DHT22;4715;51.660;7.082;2024-03-23T14:09:08;9.40;99.90
5086;DHT22;4715;51.660;7.082;2024-03-23T14:11:33;9.50;99.90
5086;DHT22;4715;51.660;7.082;2024-03-23T14:13:54;9.90;99.90
5086;DHT22;4715;51.660;7.082;2024-03-23T14:16:20;10.40;99.90
5086;DHT22;4715;51.660;7.082;2024-03-23T14:18:41;10.90;99.90
5086;DHT22;4715;51.660;7.082;2024-03-23T14:21:05;11.00;99.90
5086;DHT22;4715;51.660;7.082;2024-03-23T14:23:30;11.10;99.90
5086;DHT22;4715;51.660;7.082;2024-03-23T14:25:54;10.60;99.90
5086;DHT22;4715;51.660;7.082;2024-03-23T14:28:17;10.70;99.90
5086;DHT22;4715;51.660;7.082;2024-03-23T14:30:40;10.60;99.90
5086;DHT22;4715;51.660;7.082;2024-03-23T14:33:02;10.40;99.90
5086;DHT22;4715;51.660;7.082;2024-03-23T14:35:24;10.10;99.90
5086;DHT22;4715;51.660;7.082;2024-03-23T14:37:49;10.10;99.90
5086;DHT22;4715;51.660;7.082;2024-03-23T14:40:11;9.80;99.90
5086;DHT22;4715;51.660;7.082;2024-03-23T14:42:33;10.20;99.90
5086;DHT22;4715;51.660;7.082;2024-03-23T14:44:55;10.80;99.90
5086;DHT22;4715;51.660;7.082;2024-03-23T14:47:16;11.40;99.90
5086;DHT22;4715;51.660;7.082;2024-03-23T14:49:38;11.40;99.90
5086;DHT22;4715;51.660;7.082;2024-03-23T14:51:59;11.40;99.90
5086;DHT22;4715;51.660;7.082;2024-03-23T14:54:30;11.60;99.90
5086;DHT22;4715;51.660;7.082;2024-03-23T14:56:55;12.00;99.90
5086;DHT22;4715;51.660;7.082;2024-03-23T14:59:18;12.10;99.90
5086;DHT22;4715;51.660;7.082;2024-03-23T15:01:40;12.00;99.90
5086;DHT22;4715;51.660;7.082;2024-03-23T15:04:02;12.10;99.90
5086;DHT22;4715;51.660;7.082;2024-03-23T15:06:24;12.40;99.90
5086;DHT22;4715;51.660;7.082;2024-03-23T15:08:52;12.40;99.90
5086;DHT22;4715;51.660;7.082;2024-03-23T15:11:16;12.30;99.90
5086;DHT22;4715;51.660;7.082;2024-03-23T15:13:49;12.30;99.90
5086;DHT22;4715;51.660;7.082;2024-03-23T15:16:11;12.20;99.90
5086;DHT22;4715;51.660;7.082;2024-03-23T15:18:33;12.20;99.90
5086;DHT22;4715;51.660;7.082;2024-03-23T15:20:59;12.20;99.90
5086;DHT22;4715;51.660;7.082;2024-03-23T15:23:23;12.20;99.90
5086;DHT22;4715;51.660;7.082;2024-03-23T15:25:53;12.40;99.90
5086;DHT22;4715;51.660;7.082;2024-03-23T15:28:41;12.30;99.90
5086;DHT22;4715;51.660;7.082;2024-03-23T15:31:25;12.10;99.90
5086;DHT22;4715;51.660;7.082;2024-03-23T15:33:47;11.90;99.90
5086;DHT22;4715;51.660;7.082;2024-03-23T15:36:08;11.70;99.90
5086;DHT22;4715;51.660;7.082;2024-03-23T15:38:31;11.60;99.90
5086;DHT22;4715;51.660;7.082;2024-03-23T15:40:52;11.60;99.90
5086;DHT22;4715;51.660;7.082;2024-03-23T15:43:14;11.80;99.90
5086;DHT22;4715;51.660;7.082;2024-03-23T15:45:37;11.70;99.90
5086;DHT22;4715;51.660;7.082;2024-03-23T15:47:59;11.50;99.90
5086;DHT22;4715;51.660;7.082;2024-03-23T15:50:20;11.30;99.90
5086;DHT22;4715;51.660;7.082;2024-03-23T15:52:44;11.10;99.90
5086;DHT22;4715;51.660;7.082;2024-03-23T15:55:05;11.00;99.90
5086;DHT22;4715;51.660;7.082;2024-03-23T15:57:33;10.80;99.90
5086;DHT22;4715;51.660;7.082;2024-03-23T15:59:55;10.70;99.90
5086;DHT22;4715;51.660;7.082;2024-03-23T16:02:20;10.60;99.90
5086;DHT22;4715;51.660;7.082;2024-03-23T16:04:42;11.00;99.90
5086;DHT22;4715;51.660;7.082;2024-03-23T16:07:05;11.70;99.90
5086;DHT22;4715;51.660;7.082;2024-03-23T16:09:26;12.30;99.90
5086;DHT22;4715;51.660;7.082;2024-03-23T16:11:49;12.60;99.90
5086;DHT22;4715;51.660;7.082;2024-03-23T16:14:10;12.70;99.90
5086;DHT22;4715;51.660;7.082;2024-03-23T16:16:32;12.20;99.90
5086;DHT22;4715;51.660;7.082;2024-03-23T16:18:54;11.50;99.90
5086;DHT22;4715;51.660;7.082;2024-03-23T16:21:18;11.00;99.90
5086;DHT22;4715;51.660;7.082;2024-03-23T16:23:39;10.50;99.90
5086;DHT22;4715;51.660;7.082;2024-03-23T16:26:02;10.20;99.90
5086;DHT22;4715;51.660;7.082;2024-03-23T16:28:24;10.00;99.90
5086;DHT22;4715;51.660;7.082;2024-03-23T16:30:54;9.80;99.90
5086;DHT22;4715;51.660;7.082;2024-03-23T16:33:14;9.70;99.90
5086;DHT22;4715;51.660;7.082;2024-03-23T16:35:38;9.50;99.90
5086;DHT22;4715;51.660;7.082;2024-03-23T16:37:59;9.40;99.90
5086;DHT22;4715;51.660;7.082;2024-03-23T16:40:21;9.30;99.90
5086;DHT22;4715;51.660;7.082;2024-03-23T16:42:42;9.20;99.90